createdAt,value
2019-03-10T00:00:29.249Z,98392.00
2019-03-10T00:02:57.989Z,98384.00
2019-03-10T00:05:26.416Z,98381.00
2019-03-10T00:07:54.751Z,98366.00
2019-03-10T00:10:23.790Z,98367.00
2019-03-10T00:12:52.374Z,98349.00
2019-03-10T00:15:20.862Z,98355.00
2019-03-10T00:17:49.209Z,98346.00
2019-03-10T00:20:17.705Z,98335.00
2019-03-10T00:22:46.045Z,98331.00
2019-03-10T00:25:14.832Z,98327.00
2019-03-10T00:27:43.370Z,98316.00
2019-03-10T00:30:12.566Z,98306.00
2019-03-10T00:32:41.351Z,98300.00
2019-03-10T00:35:09.994Z,98313.00
2019-03-10T00:37:38.442Z,98310.00
2019-03-10T00:41:13.281Z,98298.00
2019-03-10T00:44:37.183Z,98287.00
2019-03-10T00:48:13.300Z,98288.00
2019-03-10T00:51:37.521Z,98285.00
2019-03-10T00:54:06.105Z,98274.00
2019-03-10T00:56:34.792Z,98266.00
2019-03-10T00:59:03.770Z,98265.00
2019-03-10T01:01:32.129Z,98272.00
2019-03-10T01:04:01.418Z,98279.00
2019-03-10T01:06:29.703Z,98266.00
2019-03-10T01:08:58.203Z,98271.00
2019-03-10T01:11:26.666Z,98281.00
2019-03-10T01:13:55.103Z,98308.00
2019-03-10T01:16:24.914Z,98308.00
2019-03-10T01:18:54.166Z,98324.00
2019-03-10T01:21:22.752Z,98368.00
2019-03-10T01:23:51.558Z,98341.00
2019-03-10T01:26:19.958Z,98344.00
2019-03-10T01:28:48.688Z,98342.00
2019-03-10T01:31:35.048Z,98335.00
2019-03-10T01:34:43.096Z,98312.00
2019-03-10T01:37:11.607Z,98332.00
2019-03-10T01:39:39.879Z,98335.00
2019-03-10T01:42:08.514Z,98354.00
2019-03-10T01:44:36.915Z,98344.00
2019-03-10T01:47:05.310Z,98371.00
2019-03-10T01:49:33.996Z,98363.00
2019-03-10T01:52:02.387Z,98348.00
2019-03-10T01:54:30.929Z,98350.00
2019-03-10T01:56:59.452Z,98354.00
2019-03-10T01:59:27.846Z,98358.00
2019-03-10T02:01:56.577Z,98374.00
2019-03-10T02:04:25.332Z,98366.00
2019-03-10T02:06:53.913Z,98348.00
2019-03-10T02:09:22.274Z,98389.00
2019-03-10T02:11:50.925Z,98404.00
2019-03-10T02:14:19.422Z,98400.00
2019-03-10T02:16:48.145Z,98428.00
2019-03-10T02:19:16.977Z,98404.00
2019-03-10T02:21:45.456Z,98412.00
2019-03-10T02:24:23.361Z,98435.00
2019-03-10T02:26:44.298Z,98446.00
2019-03-10T02:29:12.702Z,98442.00
2019-03-10T02:31:41.118Z,98466.00
2019-03-10T02:34:09.484Z,98479.00
2019-03-10T02:36:37.889Z,98481.00
2019-03-10T02:39:06.715Z,98498.00
2019-03-10T02:41:35.368Z,98499.00
2019-03-10T02:44:03.912Z,98521.00
2019-03-10T02:46:32.454Z,98514.00
2019-03-10T02:49:01.242Z,98554.00
2019-03-10T02:51:29.721Z,98581.00
2019-03-10T02:53:58.040Z,98580.00
2019-03-10T02:56:26.685Z,98590.00
2019-03-10T02:58:55.025Z,98615.00
2019-03-10T03:01:23.916Z,98594.00
2019-03-10T03:03:52.378Z,98610.00
2019-03-10T03:06:20.709Z,98624.00
2019-03-10T03:08:49.162Z,98643.00
2019-03-10T03:11:17.737Z,98633.00
2019-03-10T03:13:45.990Z,98648.00
2019-03-10T03:16:14.415Z,98657.00
2019-03-10T03:18:42.709Z,98661.00
2019-03-10T03:21:11.197Z,98692.00
2019-03-10T03:23:39.513Z,98674.00
2019-03-10T03:26:08.374Z,98685.00
2019-03-10T03:28:36.860Z,98715.00
2019-03-10T03:31:05.576Z,98703.00
2019-03-10T03:33:34.063Z,98700.00
2019-03-10T03:36:10.185Z,98697.00
2019-03-10T03:38:43.670Z,98716.00
2019-03-10T03:41:15.119Z,98718.00
2019-03-10T03:43:43.454Z,98748.00
2019-03-10T03:46:11.789Z,98739.00
2019-03-10T03:48:40.166Z,98747.00
2019-03-10T03:51:09.206Z,98750.00
2019-03-10T03:53:37.510Z,98760.00
2019-03-10T03:56:05.919Z,98758.00
2019-03-10T03:58:34.702Z,98762.00
2019-03-10T04:01:09.461Z,98774.00
2019-03-10T04:03:38.489Z,98775.00
2019-03-10T04:06:06.847Z,98775.00
2019-03-10T04:08:35.240Z,98766.00
2019-03-10T04:11:03.579Z,98779.00
2019-03-10T04:13:32.142Z,98776.00
2019-03-10T04:16:00.644Z,98774.00
2019-03-10T04:18:29.380Z,98769.00
2019-03-10T04:20:57.748Z,98771.00
2019-03-10T04:23:26.122Z,98778.00
2019-03-10T04:25:54.849Z,98784.00
2019-03-10T04:28:23.154Z,98787.00
2019-03-10T04:30:51.442Z,98793.00
2019-03-10T04:33:19.625Z,98783.00
2019-03-10T04:35:48.299Z,98797.00
2019-03-10T04:38:17.009Z,98795.00
2019-03-10T04:40:45.764Z,98796.00
2019-03-10T04:43:14.406Z,98825.00
2019-03-10T04:45:42.740Z,98803.00
2019-03-10T04:48:11.779Z,98809.00
2019-03-10T04:50:40.157Z,98815.00
2019-03-10T04:53:08.699Z,98813.00
2019-03-10T04:55:56.728Z,98804.00
2019-03-10T04:58:24.979Z,98820.00
2019-03-10T05:00:55.365Z,98826.00
2019-03-10T05:03:23.865Z,98833.00
2019-03-10T05:05:52.179Z,98829.00
2019-03-10T05:08:20.911Z,98826.00
2019-03-10T05:10:49.314Z,98854.00
2019-03-10T05:13:17.659Z,98838.00
2019-03-10T05:15:46.001Z,98829.00
2019-03-10T05:18:14.459Z,98833.00
2019-03-10T05:20:43.236Z,98839.00
2019-03-10T05:23:43.622Z,98845.00
2019-03-10T05:26:13.621Z,98853.00
2019-03-10T05:28:46.785Z,98851.00
2019-03-10T05:31:15.362Z,98844.00
2019-03-10T05:33:44.091Z,98845.00
2019-03-10T05:36:12.963Z,98859.00
2019-03-10T05:38:41.857Z,98874.00
2019-03-10T05:41:10.412Z,98868.00
2019-03-10T05:43:38.831Z,98871.00
2019-03-10T05:46:07.298Z,98870.00
2019-03-10T05:48:35.681Z,98880.00
2019-03-10T05:51:04.244Z,98856.00
2019-03-10T05:53:32.950Z,98865.00
2019-03-10T05:56:03.109Z,98877.00
2019-03-10T05:58:31.511Z,98886.00
2019-03-10T06:00:59.928Z,98890.00
2019-03-10T06:03:28.279Z,98903.00
2019-03-10T06:05:56.688Z,98904.00
2019-03-10T06:08:25.077Z,98908.00
2019-03-10T06:10:53.748Z,98901.00
2019-03-10T06:13:22.466Z,98906.00
2019-03-10T06:15:50.794Z,98914.00
2019-03-10T06:18:19.215Z,98909.00
2019-03-10T06:20:47.547Z,98911.00
2019-03-10T06:23:16.133Z,98908.00
2019-03-10T06:25:44.644Z,98908.00
2019-03-10T06:28:12.993Z,98913.00
2019-03-10T06:30:41.731Z,98910.00
2019-03-10T06:33:10.360Z,98916.00
2019-03-10T06:35:38.954Z,98909.00
2019-03-10T06:38:07.448Z,98911.00
2019-03-10T06:40:36.248Z,98916.00
2019-03-10T06:43:04.811Z,98915.00
2019-03-10T06:45:33.503Z,98910.00
2019-03-10T06:48:01.903Z,98890.00
2019-03-10T06:50:30.291Z,98920.00
2019-03-10T06:52:58.614Z,98913.00
2019-03-10T06:55:27.296Z,98933.00
2019-03-10T06:57:56.019Z,98925.00
2019-03-10T07:00:24.752Z,98943.00
2019-03-10T07:02:53.564Z,98959.00
2019-03-10T07:05:22.163Z,98943.00
2019-03-10T07:07:50.488Z,98945.00
2019-03-10T07:10:19.241Z,98952.00
2019-03-10T07:12:47.644Z,98951.00
2019-03-10T07:15:16.374Z,98954.00
2019-03-10T07:17:44.924Z,98941.00
2019-03-10T07:20:15.582Z,98931.00
2019-03-10T07:22:43.350Z,98951.00
2019-03-10T07:25:12.192Z,98948.00
2019-03-10T07:28:08.937Z,98948.00
2019-03-10T07:30:51.120Z,98964.00
2019-03-10T07:33:33.871Z,98952.00
2019-03-10T07:36:20.350Z,98956.00
2019-03-10T07:39:13.702Z,98960.00
2019-03-10T07:42:07.483Z,98963.00
2019-03-10T07:44:47.015Z,98955.00
2019-03-10T07:47:25.333Z,98955.00
2019-03-10T07:50:16.536Z,98959.00
2019-03-10T07:52:56.294Z,98949.00
2019-03-10T07:55:37.571Z,98955.00
2019-03-10T07:58:17.275Z,98934.00
2019-03-10T08:01:14.406Z,98948.00
2019-03-10T08:04:11.354Z,98946.00
2019-03-10T08:06:56.974Z,98928.00
2019-03-10T08:09:51.656Z,98940.00
2019-03-10T08:12:29.208Z,98950.00
2019-03-10T08:15:19.778Z,98932.00
2019-03-10T08:18:02.814Z,98934.00
2019-03-10T08:20:59.976Z,98923.00
2019-03-10T08:23:45.874Z,98936.00
2019-03-10T08:26:36.836Z,98935.00
2019-03-10T08:29:23.604Z,98947.00
2019-03-10T08:32:20.882Z,98951.00
2019-03-10T08:35:14.811Z,98940.00
2019-03-10T08:38:03.328Z,98961.00
2019-03-10T08:40:57.552Z,98963.00
2019-03-10T08:43:36.372Z,98949.00
2019-03-10T08:46:17.610Z,98938.00
2019-03-10T08:49:01.657Z,98952.00
2019-03-10T08:51:52.669Z,98932.00
2019-03-10T08:54:34.044Z,98939.00
2019-03-10T08:57:16.242Z,98944.00
2019-03-10T08:59:55.931Z,98945.00
2019-03-10T09:02:42.348Z,98943.00
2019-03-10T09:05:31.319Z,98932.00
2019-03-10T09:08:34.384Z,98908.00
2019-03-10T09:11:20.943Z,98940.00
2019-03-10T09:14:04.452Z,98946.00
2019-03-10T09:16:48.390Z,98927.00
2019-03-10T09:19:28.986Z,98919.00
2019-03-10T09:22:16.973Z,98922.00
2019-03-10T09:24:51.457Z,98920.00
2019-03-10T09:27:37.982Z,98914.00
2019-03-10T09:30:29.213Z,98923.00
2019-03-10T09:33:15.890Z,98908.00
2019-03-10T09:36:04.236Z,98901.00
2019-03-10T09:38:47.071Z,98923.00
2019-03-10T09:41:34.058Z,98903.00
2019-03-10T09:44:22.522Z,98911.00
2019-03-10T09:47:05.848Z,98916.00
2019-03-10T09:49:56.847Z,98916.00
2019-03-10T09:52:50.816Z,98903.00
2019-03-10T09:55:30.708Z,98909.00
2019-03-10T09:58:06.869Z,98913.00
2019-03-10T10:01:00.714Z,98919.00
2019-03-10T10:03:40.084Z,98909.00
2019-03-10T10:06:31.167Z,98915.00
2019-03-10T10:09:31.096Z,98925.00
2019-03-10T10:12:18.666Z,98912.00
2019-03-10T10:15:05.141Z,98924.00
2019-03-10T10:17:59.008Z,98919.00
2019-03-10T10:20:56.470Z,98908.00
2019-03-10T10:23:44.890Z,98881.00
2019-03-10T10:26:33.340Z,98907.00
2019-03-10T10:29:13.422Z,98910.00
2019-03-10T10:31:50.460Z,98909.00
2019-03-10T10:34:33.552Z,98903.00
2019-03-10T10:37:17.783Z,98909.00
2019-03-10T10:40:05.828Z,98898.00
2019-03-10T10:42:43.484Z,98915.00
2019-03-10T10:45:23.255Z,98903.00
2019-03-10T10:48:11.199Z,98904.00
2019-03-10T10:50:49.073Z,98889.00
2019-03-10T10:53:40.453Z,98883.00
2019-03-10T10:56:37.717Z,98882.00
2019-03-10T10:59:28.629Z,98884.00
2019-03-10T11:02:19.191Z,98869.00
2019-03-10T11:05:19.075Z,98888.00
2019-03-10T11:07:55.871Z,98893.00
2019-03-10T11:10:46.639Z,98878.00
2019-03-10T11:13:33.219Z,98878.00
2019-03-10T11:16:21.119Z,98883.00
2019-03-10T11:19:08.914Z,98874.00
2019-03-10T11:21:55.720Z,98874.00
2019-03-10T11:24:32.562Z,98870.00
2019-03-10T11:27:15.435Z,98885.00
2019-03-10T11:29:55.951Z,98861.00
2019-03-10T11:32:31.965Z,98864.00
2019-03-10T11:35:29.408Z,98849.00
2019-03-10T11:38:17.488Z,98869.00
2019-03-10T11:41:02.782Z,98855.00
2019-03-10T11:43:35.981Z,98850.00
2019-03-10T11:46:38.588Z,98855.00
2019-03-10T11:49:42.189Z,98838.00
2019-03-10T11:52:25.918Z,98845.00
2019-03-10T11:55:22.646Z,98859.00
2019-03-10T11:58:19.626Z,98855.00
2019-03-10T12:01:02.284Z,98858.00
2019-03-10T12:03:59.197Z,98849.00
2019-03-10T12:06:56.165Z,98834.00
2019-03-10T12:09:24.518Z,98855.00
2019-03-10T12:11:52.848Z,98845.00
2019-03-10T12:14:21.198Z,98856.00
2019-03-10T12:16:49.697Z,98858.00
2019-03-10T12:19:18.368Z,98857.00
2019-03-10T12:21:47.005Z,98854.00
2019-03-10T12:24:15.796Z,98852.00
2019-03-10T12:26:44.384Z,98850.00
2019-03-10T12:29:12.769Z,98842.00
2019-03-10T12:31:41.125Z,98833.00
2019-03-10T12:34:09.677Z,98849.00
2019-03-10T12:36:38.343Z,98828.00
2019-03-10T12:39:08.253Z,98826.00
2019-03-10T12:41:37.096Z,98826.00
2019-03-10T12:44:06.118Z,98828.00
2019-03-10T12:46:34.436Z,98826.00
2019-03-10T12:49:03.358Z,98825.00
2019-03-10T12:51:31.872Z,98812.00
2019-03-10T12:54:00.537Z,98808.00
2019-03-10T12:56:28.976Z,98810.00
2019-03-10T12:58:57.356Z,98813.00
2019-03-10T13:01:26.044Z,98807.00
2019-03-10T13:03:58.758Z,98785.00
2019-03-10T13:06:24.635Z,98794.00
2019-03-10T13:08:53.348Z,98808.00
2019-03-10T13:11:22.026Z,98808.00
2019-03-10T13:13:50.690Z,98792.00
2019-03-10T13:16:19.340Z,98788.00
2019-03-10T13:18:47.743Z,98784.00
2019-03-10T13:21:16.475Z,98779.00
2019-03-10T13:23:44.742Z,98783.00
2019-03-10T13:26:13.204Z,98781.00
2019-03-10T13:28:41.492Z,98777.00
2019-03-10T13:31:09.925Z,98768.00
2019-03-10T13:33:38.335Z,98769.00
2019-03-10T13:36:07.733Z,98756.00
2019-03-10T13:38:35.995Z,98759.00
2019-03-10T13:41:04.805Z,98756.00
2019-03-10T13:43:33.810Z,98754.00
2019-03-10T13:46:03.027Z,98752.00
2019-03-10T13:48:31.800Z,98743.00
2019-03-10T13:51:00.360Z,98737.00
2019-03-10T13:53:29.122Z,98727.00
2019-03-10T13:55:57.678Z,98729.00
2019-03-10T13:58:26.255Z,98730.00
2019-03-10T14:00:54.967Z,98725.00
2019-03-10T14:03:23.395Z,98721.00
2019-03-10T14:05:51.907Z,98703.00
2019-03-10T14:08:20.843Z,98705.00
2019-03-10T14:10:51.534Z,98702.00
2019-03-10T14:13:20.670Z,98687.00
2019-03-10T14:15:49.552Z,98679.00
2019-03-10T14:18:18.161Z,98685.00
2019-03-10T14:20:46.831Z,98673.00
2019-03-10T14:23:15.326Z,98665.00
2019-03-10T14:25:44.145Z,98659.00
2019-03-10T14:28:12.884Z,98656.00
2019-03-10T14:30:41.315Z,98660.00
2019-03-10T14:33:10.051Z,98649.00
2019-03-10T14:35:38.514Z,98643.00
2019-03-10T14:38:07.424Z,98641.00
2019-03-10T14:40:36.003Z,98644.00
2019-03-10T14:43:04.776Z,98636.00
2019-03-10T14:45:33.581Z,98642.00
2019-03-10T14:48:01.941Z,98635.00
2019-03-10T14:50:30.389Z,98623.00
2019-03-10T14:52:59.150Z,98618.00
2019-03-10T14:55:27.729Z,98626.00
2019-03-10T14:57:56.491Z,98619.00
2019-03-10T15:00:25.144Z,98608.00
2019-03-10T15:02:53.368Z,98614.00
2019-03-10T15:05:22.194Z,98609.00
2019-03-10T15:07:50.627Z,98602.00
2019-03-10T15:10:19.463Z,98599.00
2019-03-10T15:12:47.959Z,98599.00
2019-03-10T15:15:22.207Z,98594.00
2019-03-10T15:17:47.209Z,98595.00
2019-03-10T15:20:16.373Z,98593.00
2019-03-10T15:22:45.123Z,98588.00
2019-03-10T15:25:13.535Z,98587.00
2019-03-10T15:27:41.987Z,98579.00
2019-03-10T15:30:15.820Z,98577.00
2019-03-10T15:32:44.494Z,98572.00
2019-03-10T15:35:13.292Z,98561.00
2019-03-10T15:37:42.184Z,98561.00
2019-03-10T15:40:12.038Z,98558.00
2019-03-10T15:42:40.511Z,98559.00
2019-03-10T15:45:10.300Z,98541.00
2019-03-10T15:47:38.884Z,98549.00
2019-03-10T15:50:15.723Z,98545.00
2019-03-10T15:52:44.305Z,98542.00
2019-03-10T15:55:13.124Z,98536.00
2019-03-10T15:57:49.527Z,98521.00
2019-03-10T16:00:14.616Z,98526.00
2019-03-10T16:02:43.222Z,98513.00
2019-03-10T16:05:12.182Z,98511.00
2019-03-10T16:07:40.562Z,98500.00
2019-03-10T16:10:10.284Z,98489.00
2019-03-10T16:12:39.223Z,98489.00
2019-03-10T16:15:11.078Z,98486.00
2019-03-10T16:17:39.606Z,98470.00
2019-03-10T16:20:09.857Z,98479.00
2019-03-10T16:22:38.573Z,98477.00
2019-03-10T16:25:09.111Z,98477.00
2019-03-10T16:27:37.307Z,98474.00
2019-03-10T16:30:09.418Z,98478.00
2019-03-10T16:32:39.091Z,98476.00
2019-03-10T16:35:08.133Z,98469.00
2019-03-10T16:37:36.496Z,98466.00
2019-03-10T16:40:07.180Z,98462.00
2019-03-10T16:42:36.025Z,98476.00
2019-03-10T16:45:05.311Z,98465.00
2019-03-10T16:47:34.353Z,98465.00
2019-03-10T16:50:03.313Z,98456.00
2019-03-10T16:52:31.670Z,98463.00
2019-03-10T16:55:00.115Z,98473.00
2019-03-10T16:57:28.777Z,98462.00
2019-03-10T16:59:57.254Z,98471.00
2019-03-10T17:02:25.857Z,98470.00
2019-03-10T17:04:54.187Z,98466.00
2019-03-10T17:07:23.096Z,98477.00
2019-03-10T17:09:51.546Z,98471.00
2019-03-10T17:12:20.248Z,98462.00
2019-03-10T17:14:48.810Z,98463.00
2019-03-10T17:17:17.988Z,98459.00
2019-03-10T17:19:46.432Z,98458.00
2019-03-10T17:22:15.047Z,98453.00
2019-03-10T17:24:43.797Z,98447.00
2019-03-10T17:27:12.403Z,98443.00
2019-03-10T17:29:40.766Z,98438.00
2019-03-10T17:32:09.102Z,98428.00
2019-03-10T17:34:37.577Z,98445.00
2019-03-10T17:37:05.897Z,98423.00
2019-03-10T17:39:34.265Z,98432.00
2019-03-10T17:42:03.039Z,98424.00
2019-03-10T17:44:40.669Z,98429.00
2019-03-10T17:47:01.850Z,98415.00
2019-03-10T17:49:30.235Z,98422.00
2019-03-10T17:51:58.624Z,98416.00
2019-03-10T17:54:27.017Z,98404.00
2019-03-10T17:56:55.648Z,98405.00
2019-03-10T17:59:24.352Z,98415.00
2019-03-10T18:01:52.747Z,98409.00
2019-03-10T18:04:21.523Z,98401.00
2019-03-10T18:06:50.103Z,98407.00
2019-03-10T18:09:18.559Z,98403.00
2019-03-10T18:11:46.866Z,98415.00
2019-03-10T18:14:15.302Z,98403.00
2019-03-10T18:16:43.681Z,98401.00
2019-03-10T18:19:12.176Z,98394.00
2019-03-10T18:21:40.832Z,98403.00
2019-03-10T18:24:09.062Z,98397.00
2019-03-10T18:26:37.485Z,98385.00
2019-03-10T18:29:05.918Z,98374.00
2019-03-10T18:31:34.502Z,98370.00
2019-03-10T18:34:03.165Z,98379.00
2019-03-10T18:36:31.888Z,98365.00
2019-03-10T18:39:00.610Z,98359.00
2019-03-10T18:41:29.035Z,98350.00
2019-03-10T18:43:57.434Z,98345.00
2019-03-10T18:46:26.067Z,98344.00
2019-03-10T18:48:54.481Z,98331.00
2019-03-10T18:51:23.118Z,98328.00
2019-03-10T18:53:51.560Z,98324.00
2019-03-10T18:56:20.614Z,98313.00
2019-03-10T18:58:49.241Z,98310.00
2019-03-10T19:01:17.865Z,98311.00
2019-03-10T19:03:46.303Z,98311.00
2019-03-10T19:06:14.885Z,98309.00
2019-03-10T19:08:43.336Z,98306.00
2019-03-10T19:11:12.000Z,98289.00
2019-03-10T19:13:41.002Z,98281.00
2019-03-10T19:16:09.885Z,98287.00
2019-03-10T19:18:38.712Z,98272.00
2019-03-10T19:21:07.494Z,98273.00
2019-03-10T19:23:36.058Z,98262.00
2019-03-10T19:26:05.084Z,98251.00
2019-03-10T19:28:33.776Z,98247.00
2019-03-10T19:31:02.685Z,98250.00
2019-03-10T19:33:31.415Z,98251.00
2019-03-10T19:35:59.766Z,98248.00
2019-03-10T19:38:28.156Z,98243.00
2019-03-10T19:40:56.712Z,98236.00
2019-03-10T19:43:25.389Z,98221.00
2019-03-10T19:45:53.934Z,98218.00
2019-03-10T19:48:22.430Z,98215.00
2019-03-10T19:50:51.019Z,98206.00
2019-03-10T19:53:19.658Z,98204.00
2019-03-10T19:55:48.746Z,98198.00
2019-03-10T19:58:17.533Z,98192.00
2019-03-10T20:00:46.218Z,98184.00
2019-03-10T20:03:14.715Z,98172.00
2019-03-10T20:05:43.047Z,98162.00
2019-03-10T20:08:13.313Z,98163.00
2019-03-10T20:10:42.089Z,98164.00
2019-03-10T20:13:10.355Z,98167.00
2019-03-10T20:15:38.777Z,98151.00
2019-03-10T20:18:09.170Z,98138.00
2019-03-10T20:20:37.515Z,98135.00
2019-03-10T20:23:06.388Z,98134.00
2019-03-10T20:25:34.753Z,98119.00
2019-03-10T20:28:03.123Z,98118.00
2019-03-10T20:30:31.649Z,98119.00
2019-03-10T20:33:00.535Z,98126.00
2019-03-10T20:35:28.880Z,98122.00
2019-03-10T20:37:57.395Z,98122.00
2019-03-10T20:40:25.968Z,98103.00
2019-03-10T20:42:54.659Z,98112.00
2019-03-10T20:45:24.739Z,98111.00
2019-03-10T20:47:56.316Z,98099.00
2019-03-10T20:50:24.236Z,98085.00
2019-03-10T20:52:52.777Z,98074.00
2019-03-10T20:55:21.515Z,98068.00
2019-03-10T20:57:49.922Z,98046.00
2019-03-10T21:00:19.114Z,98042.00
2019-03-10T21:02:47.702Z,98037.00
2019-03-10T21:05:16.519Z,98044.00
2019-03-10T21:07:45.171Z,98040.00
2019-03-10T21:10:14.431Z,98041.00
2019-03-10T21:12:42.979Z,98036.00
2019-03-10T21:15:16.049Z,98025.00
2019-03-10T21:17:44.551Z,98013.00
2019-03-10T21:20:14.593Z,97999.00
2019-03-10T21:22:42.950Z,97984.00
2019-03-10T21:25:14.977Z,97983.00
2019-03-10T21:27:43.318Z,97984.00
2019-03-10T21:30:15.710Z,97985.00
2019-03-10T21:32:44.044Z,97984.00
2019-03-10T21:35:17.744Z,97987.00
2019-03-10T21:37:42.623Z,97979.00
2019-03-10T21:40:13.602Z,97981.00
2019-03-10T21:42:42.184Z,97977.00
2019-03-10T21:45:11.104Z,97974.00
2019-03-10T21:47:39.490Z,97969.00
2019-03-10T21:50:10.119Z,97959.00
2019-03-10T21:52:38.598Z,97958.00
2019-03-10T21:55:07.589Z,97947.00
2019-03-10T21:57:35.985Z,97955.00
2019-03-10T22:00:04.833Z,97950.00
2019-03-10T22:02:33.350Z,97950.00
2019-03-10T22:05:01.830Z,97942.00
2019-03-10T22:07:30.440Z,97939.00
2019-03-10T22:09:58.929Z,97939.00
2019-03-10T22:12:27.375Z,97940.00
2019-03-10T22:14:55.689Z,97935.00
2019-03-10T22:17:24.471Z,97933.00
2019-03-10T22:19:52.813Z,97931.00
2019-03-10T22:22:21.473Z,97923.00
2019-03-10T22:24:49.884Z,97918.00
2019-03-10T22:27:18.531Z,97909.00
2019-03-10T22:29:47.210Z,97906.00
2019-03-10T22:32:15.933Z,97896.00
2019-03-10T22:34:44.590Z,97894.00
2019-03-10T22:37:13.414Z,97889.00
2019-03-10T22:39:42.239Z,97883.00
2019-03-10T22:42:11.176Z,97879.00
2019-03-10T22:44:39.720Z,97867.00
2019-03-10T22:47:08.755Z,97865.00
2019-03-10T22:49:37.706Z,97859.00
2019-03-10T22:52:06.697Z,97861.00
2019-03-10T22:54:35.287Z,97851.00
2019-03-10T22:57:03.663Z,97849.00
2019-03-10T22:59:32.131Z,97836.00
2019-03-10T23:02:00.714Z,97839.00
2019-03-10T23:04:29.011Z,97827.00
2019-03-10T23:06:57.530Z,97826.00
2019-03-10T23:09:26.302Z,97833.00
2019-03-10T23:11:54.738Z,97824.00
2019-03-10T23:14:23.275Z,97808.00
2019-03-10T23:16:52.546Z,97803.00
2019-03-10T23:19:20.942Z,97807.00
2019-03-10T23:21:49.699Z,97800.00
2019-03-10T23:24:18.326Z,97797.00
2019-03-10T23:26:46.706Z,97799.00
2019-03-10T23:29:15.109Z,97794.00
2019-03-10T23:31:43.503Z,97779.00
2019-03-10T23:34:11.849Z,97782.00
2019-03-10T23:36:40.546Z,97787.00
2019-03-10T23:39:08.943Z,97779.00
2019-03-10T23:41:37.239Z,97767.00
2019-03-10T23:44:05.751Z,97767.00
2019-03-10T23:46:34.441Z,97776.00
2019-03-10T23:49:03.005Z,97767.00
2019-03-10T23:51:31.453Z,97772.00
2019-03-10T23:53:59.719Z,97777.00
2019-03-10T23:56:28.813Z,97786.00
2019-03-10T23:58:57.251Z,97784.00
